sensor_id;sensor_type;location;lat;lon;timestamp;P1;durP1;ratioP1;P2;durP2;ratioP2
18716;SDS011;9487;50.892;6.906;2022-09-09T00:02:01;2.40;;;0.80;;
18716;SDS011;9487;50.892;6.906;2022-09-09T00:04:32;2.07;;;1.10;;
18716;SDS011;9487;50.892;6.906;2022-09-09T00:07:01;1.93;;;0.90;;
18716;SDS011;9487;50.892;6.906;2022-09-09T00:09:33;2.23;;;1.00;;
18716;SDS011;9487;50.892;6.906;2022-09-09T00:12:09;2.17;;;1.00;;
18716;SDS011;9487;50.892;6.906;2022-09-09T00:14:41;1.00;;;0.90;;
18716;SDS011;9487;50.892;6.906;2022-09-09T00:17:14;2.27;;;1.33;;
18716;SDS011;9487;50.892;6.906;2022-09-09T00:19:48;2.30;;;0.83;;
18716;SDS011;9487;50.892;6.906;2022-09-09T00:22:20;2.50;;;1.20;;
18716;SDS011;9487;50.892;6.906;2022-09-09T00:24:51;1.37;;;0.80;;
18716;SDS011;9487;50.892;6.906;2022-09-09T00:27:22;2.03;;;0.90;;
18716;SDS011;9487;50.892;6.906;2022-09-09T00:29:54;2.00;;;1.23;;
18716;SDS011;9487;50.892;6.906;2022-09-09T00:32:24;4.40;;;1.40;;
18716;SDS011;9487;50.892;6.906;2022-09-09T00:34:56;1.53;;;1.00;;
18716;SDS011;9487;50.892;6.906;2022-09-09T00:37:27;2.50;;;1.20;;
18716;SDS011;9487;50.892;6.906;2022-09-09T00:39:59;2.33;;;0.87;;
18716;SDS011;9487;50.892;6.906;2022-09-09T00:42:32;1.20;;;0.50;;
18716;SDS011;9487;50.892;6.906;2022-09-09T00:45:10;2.10;;;0.80;;
18716;SDS011;9487;50.892;6.906;2022-09-09T00:47:49;1.30;;;0.93;;
18716;SDS011;9487;50.892;6.906;2022-09-09T00:50:22;2.50;;;0.80;;
18716;SDS011;9487;50.892;6.906;2022-09-09T00:53:15;0.90;;;0.90;;
18716;SDS011;9487;50.892;6.906;2022-09-09T00:55:51;2.33;;;1.00;;
18716;SDS011;9487;50.892;6.906;2022-09-09T00:58:22;2.03;;;0.97;;
18716;SDS011;9487;50.892;6.906;2022-09-09T01:00:50;2.53;;;0.90;;
18716;SDS011;9487;50.892;6.906;2022-09-09T01:03:22;2.10;;;0.70;;
18716;SDS011;9487;50.892;6.906;2022-09-09T01:06:01;2.00;;;1.00;;
18716;SDS011;9487;50.892;6.906;2022-09-09T01:11:41;1.83;;;0.70;;
18716;SDS011;9487;50.892;6.906;2022-09-09T01:14:24;1.40;;;0.90;;
18716;SDS011;9487;50.892;6.906;2022-09-09T01:17:02;1.73;;;0.80;;
18716;SDS011;9487;50.892;6.906;2022-09-09T01:19:37;2.10;;;1.10;;
18716;SDS011;9487;50.892;6.906;2022-09-09T01:22:15;2.17;;;1.10;;
18716;SDS011;9487;50.892;6.906;2022-09-09T01:25:01;1.83;;;1.10;;
18716;SDS011;9487;50.892;6.906;2022-09-09T01:27:43;1.60;;;1.03;;
18716;SDS011;9487;50.892;6.906;2022-09-09T01:30:12;1.33;;;0.90;;
18716;SDS011;9487;50.892;6.906;2022-09-09T01:32:42;2.37;;;0.90;;
18716;SDS011;9487;50.892;6.906;2022-09-09T01:35:11;3.33;;;1.27;;
18716;SDS011;9487;50.892;6.906;2022-09-09T01:37:44;2.83;;;1.10;;
18716;SDS011;9487;50.892;6.906;2022-09-09T01:40:11;2.23;;;1.50;;
18716;SDS011;9487;50.892;6.906;2022-09-09T01:42:38;2.37;;;1.40;;
18716;SDS011;9487;50.892;6.906;2022-09-09T01:45:07;2.03;;;1.33;;
18716;SDS011;9487;50.892;6.906;2022-09-09T01:47:35;2.50;;;1.30;;
18716;SDS011;9487;50.892;6.906;2022-09-09T01:50:02;2.17;;;1.20;;
18716;SDS011;9487;50.892;6.906;2022-09-09T01:52:30;3.07;;;1.60;;
18716;SDS011;9487;50.892;6.906;2022-09-09T01:54:59;3.27;;;1.20;;
18716;SDS011;9487;50.892;6.906;2022-09-09T01:57:26;2.90;;;1.40;;
18716;SDS011;9487;50.892;6.906;2022-09-09T02:00:02;3.47;;;1.20;;
18716;SDS011;9487;50.892;6.906;2022-09-09T02:02:35;2.60;;;1.40;;
18716;SDS011;9487;50.892;6.906;2022-09-09T02:05:08;2.53;;;1.30;;
18716;SDS011;9487;50.892;6.906;2022-09-09T02:07:43;1.63;;;1.30;;
18716;SDS011;9487;50.892;6.906;2022-09-09T02:10:21;3.10;;;1.37;;
18716;SDS011;9487;50.892;6.906;2022-09-09T02:12:53;3.10;;;1.40;;
18716;SDS011;9487;50.892;6.906;2022-09-09T02:15:28;2.83;;;1.27;;
18716;SDS011;9487;50.892;6.906;2022-09-09T02:17:59;3.93;;;1.50;;
18716;SDS011;9487;50.892;6.906;2022-09-09T02:20:33;3.97;;;1.40;;
18716;SDS011;9487;50.892;6.906;2022-09-09T02:23:01;4.67;;;1.20;;
18716;SDS011;9487;50.892;6.906;2022-09-09T02:25:28;4.63;;;1.50;;
18716;SDS011;9487;50.892;6.906;2022-09-09T02:27:55;2.57;;;1.20;;
18716;SDS011;9487;50.892;6.906;2022-09-09T02:30:24;2.57;;;1.17;;
18716;SDS011;9487;50.892;6.906;2022-09-09T02:32:51;2.67;;;1.00;;
18716;SDS011;9487;50.892;6.906;2022-09-09T02:35:24;2.70;;;1.10;;
18716;SDS011;9487;50.892;6.906;2022-09-09T02:37:51;2.67;;;1.20;;
18716;SDS011;9487;50.892;6.906;2022-09-09T02:40:21;3.80;;;1.40;;
18716;SDS011;9487;50.892;6.906;2022-09-09T02:42:49;4.40;;;1.30;;
18716;SDS011;9487;50.892;6.906;2022-09-09T02:45:17;3.03;;;1.37;;
18716;SDS011;9487;50.892;6.906;2022-09-09T02:47:47;3.20;;;1.57;;
18716;SDS011;9487;50.892;6.906;2022-09-09T02:50:19;4.30;;;1.80;;
18716;SDS011;9487;50.892;6.906;2022-09-09T02:52:54;3.60;;;1.77;;
18716;SDS011;9487;50.892;6.906;2022-09-09T02:55:31;2.53;;;1.30;;
18716;SDS011;9487;50.892;6.906;2022-09-09T02:58:04;2.60;;;1.37;;
18716;SDS011;9487;50.892;6.906;2022-09-09T03:00:33;3.60;;;1.50;;
18716;SDS011;9487;50.892;6.906;2022-09-09T03:03:00;6.87;;;1.60;;
18716;SDS011;9487;50.892;6.906;2022-09-09T03:05:30;4.27;;;1.70;;
18716;SDS011;9487;50.892;6.906;2022-09-09T03:07:57;3.50;;;1.50;;
18716;SDS011;9487;50.892;6.906;2022-09-09T03:10:24;2.57;;;1.53;;
18716;SDS011;9487;50.892;6.906;2022-09-09T03:12:51;6.57;;;1.83;;
18716;SDS011;9487;50.892;6.906;2022-09-09T03:15:17;2.77;;;1.40;;
18716;SDS011;9487;50.892;6.906;2022-09-09T03:17:44;2.30;;;1.30;;
18716;SDS011;9487;50.892;6.906;2022-09-09T03:20:12;3.23;;;1.50;;
18716;SDS011;9487;50.892;6.906;2022-09-09T03:22:40;4.67;;;1.57;;
18716;SDS011;9487;50.892;6.906;2022-09-09T03:25:08;4.33;;;1.30;;
18716;SDS011;9487;50.892;6.906;2022-09-09T03:27:35;2.67;;;1.30;;
18716;SDS011;9487;50.892;6.906;2022-09-09T03:30:02;2.97;;;1.40;;
18716;SDS011;9487;50.892;6.906;2022-09-09T03:32:30;2.57;;;1.40;;
18716;SDS011;9487;50.892;6.906;2022-09-09T03:34:57;3.97;;;1.70;;
18716;SDS011;9487;50.892;6.906;2022-09-09T03:37:24;4.50;;;1.67;;
18716;SDS011;9487;50.892;6.906;2022-09-09T03:39:52;3.93;;;1.80;;
18716;SDS011;9487;50.892;6.906;2022-09-09T03:42:20;4.17;;;1.77;;
18716;SDS011;9487;50.892;6.906;2022-09-09T03:44:47;2.03;;;1.30;;
18716;SDS011;9487;50.892;6.906;2022-09-09T03:47:15;3.80;;;2.00;;
18716;SDS011;9487;50.892;6.906;2022-09-09T03:49:44;6.03;;;2.40;;
18716;SDS011;9487;50.892;6.906;2022-09-09T03:52:10;4.20;;;2.00;;
18716;SDS011;9487;50.892;6.906;2022-09-09T03:54:38;4.13;;;1.90;;
18716;SDS011;9487;50.892;6.906;2022-09-09T03:57:09;4.60;;;2.00;;
18716;SDS011;9487;50.892;6.906;2022-09-09T03:59:36;3.83;;;2.40;;
18716;SDS011;9487;50.892;6.906;2022-09-09T04:02:03;3.03;;;2.13;;
18716;SDS011;9487;50.892;6.906;2022-09-09T04:04:30;7.80;;;3.13;;
18716;SDS011;9487;50.892;6.906;2022-09-09T04:06:57;4.33;;;2.77;;
18716;SDS011;9487;50.892;6.906;2022-09-09T04:09:24;4.97;;;2.13;;
18716;SDS011;9487;50.892;6.906;2022-09-09T04:11:51;5.77;;;2.80;;
18716;SDS011;9487;50.892;6.906;2022-09-09T04:14:20;4.63;;;2.30;;
18716;SDS011;9487;50.892;6.906;2022-09-09T04:16:47;4.33;;;2.60;;
18716;SDS011;9487;50.892;6.906;2022-09-09T04:19:14;6.13;;;2.73;;
18716;SDS011;9487;50.892;6.906;2022-09-09T04:21:41;5.93;;;2.53;;
18716;SDS011;9487;50.892;6.906;2022-09-09T04:24:08;3.47;;;2.13;;
18716;SDS011;9487;50.892;6.906;2022-09-09T04:26:35;4.57;;;2.23;;
18716;SDS011;9487;50.892;6.906;2022-09-09T04:29:02;4.57;;;2.63;;
18716;SDS011;9487;50.892;6.906;2022-09-09T04:31:31;3.93;;;1.60;;
18716;SDS011;9487;50.892;6.906;2022-09-09T04:33:58;5.30;;;1.80;;
18716;SDS011;9487;50.892;6.906;2022-09-09T04:36:27;5.80;;;1.67;;
18716;SDS011;9487;50.892;6.906;2022-09-09T04:38:54;2.83;;;1.30;;
18716;SDS011;9487;50.892;6.906;2022-09-09T04:41:20;3.57;;;1.57;;
18716;SDS011;9487;50.892;6.906;2022-09-09T04:43:47;4.80;;;1.30;;
18716;SDS011;9487;50.892;6.906;2022-09-09T04:46:14;4.63;;;1.30;;
18716;SDS011;9487;50.892;6.906;2022-09-09T04:48:43;5.73;;;1.80;;
18716;SDS011;9487;50.892;6.906;2022-09-09T04:51:11;3.83;;;1.40;;
18716;SDS011;9487;50.892;6.906;2022-09-09T04:53:39;5.17;;;2.23;;
18716;SDS011;9487;50.892;6.906;2022-09-09T04:56:07;3.43;;;1.67;;
18716;SDS011;9487;50.892;6.906;2022-09-09T04:58:35;4.70;;;1.80;;
18716;SDS011;9487;50.892;6.906;2022-09-09T05:01:06;4.63;;;1.73;;
18716;SDS011;9487;50.892;6.906;2022-09-09T05:03:33;3.90;;;1.60;;
18716;SDS011;9487;50.892;6.906;2022-09-09T05:06:06;2.90;;;1.43;;
18716;SDS011;9487;50.892;6.906;2022-09-09T05:08:34;3.70;;;1.73;;
18716;SDS011;9487;50.892;6.906;2022-09-09T05:11:02;3.90;;;1.40;;
18716;SDS011;9487;50.892;6.906;2022-09-09T05:13:29;4.33;;;2.10;;
18716;SDS011;9487;50.892;6.906;2022-09-09T05:15:57;8.57;;;1.90;;
18716;SDS011;9487;50.892;6.906;2022-09-09T05:18:24;4.47;;;1.73;;
18716;SDS011;9487;50.892;6.906;2022-09-09T05:20:50;5.87;;;1.60;;
18716;SDS011;9487;50.892;6.906;2022-09-09T05:23:19;4.87;;;1.70;;
18716;SDS011;9487;50.892;6.906;2022-09-09T05:25:54;5.70;;;1.43;;
18716;SDS011;9487;50.892;6.906;2022-09-09T05:28:22;2.77;;;1.40;;
18716;SDS011;9487;50.892;6.906;2022-09-09T05:30:54;4.90;;;1.77;;
18716;SDS011;9487;50.892;6.906;2022-09-09T05:33:22;4.30;;;1.50;;
18716;SDS011;9487;50.892;6.906;2022-09-09T05:35:54;4.80;;;1.73;;
18716;SDS011;9487;50.892;6.906;2022-09-09T05:38:23;5.43;;;1.30;;
18716;SDS011;9487;50.892;6.906;2022-09-09T05:40:50;5.10;;;1.90;;
18716;SDS011;9487;50.892;6.906;2022-09-09T05:43:17;5.40;;;1.93;;
18716;SDS011;9487;50.892;6.906;2022-09-09T05:45:44;4.57;;;1.37;;
18716;SDS011;9487;50.892;6.906;2022-09-09T05:48:12;3.07;;;1.27;;
18716;SDS011;9487;50.892;6.906;2022-09-09T05:50:40;5.20;;;1.23;;
18716;SDS011;9487;50.892;6.906;2022-09-09T05:53:07;4.73;;;1.50;;
18716;SDS011;9487;50.892;6.906;2022-09-09T05:55:36;3.97;;;1.50;;
18716;SDS011;9487;50.892;6.906;2022-09-09T05:58:03;4.57;;;1.80;;
18716;SDS011;9487;50.892;6.906;2022-09-09T06:00:30;4.37;;;1.40;;
18716;SDS011;9487;50.892;6.906;2022-09-09T06:02:57;4.40;;;1.37;;
18716;SDS011;9487;50.892;6.906;2022-09-09T06:05:24;5.43;;;1.50;;
18716;SDS011;9487;50.892;6.906;2022-09-09T06:07:54;3.47;;;1.07;;
18716;SDS011;9487;50.892;6.906;2022-09-09T06:10:21;5.30;;;1.70;;
18716;SDS011;9487;50.892;6.906;2022-09-09T06:12:51;4.30;;;1.50;;
18716;SDS011;9487;50.892;6.906;2022-09-09T06:15:18;3.77;;;1.30;;
18716;SDS011;9487;50.892;6.906;2022-09-09T06:17:45;4.23;;;1.50;;
18716;SDS011;9487;50.892;6.906;2022-09-09T06:20:12;4.97;;;1.67;;
18716;SDS011;9487;50.892;6.906;2022-09-09T06:22:39;7.70;;;2.93;;
18716;SDS011;9487;50.892;6.906;2022-09-09T06:25:07;4.27;;;1.60;;
18716;SDS011;9487;50.892;6.906;2022-09-09T06:27:34;3.97;;;1.30;;
18716;SDS011;9487;50.892;6.906;2022-09-09T06:30:03;4.47;;;1.57;;
18716;SDS011;9487;50.892;6.906;2022-09-09T06:32:30;6.17;;;1.83;;
18716;SDS011;9487;50.892;6.906;2022-09-09T06:35:00;4.43;;;1.60;;
18716;SDS011;9487;50.892;6.906;2022-09-09T06:37:27;6.87;;;1.77;;
18716;SDS011;9487;50.892;6.906;2022-09-09T06:39:54;4.80;;;1.73;;
18716;SDS011;9487;50.892;6.906;2022-09-09T06:42:21;4.20;;;1.30;;
18716;SDS011;9487;50.892;6.906;2022-09-09T06:44:48;3.77;;;1.40;;
18716;SDS011;9487;50.892;6.906;2022-09-09T06:47:16;4.00;;;1.57;;
18716;SDS011;9487;50.892;6.906;2022-09-09T06:49:43;4.13;;;1.53;;
18716;SDS011;9487;50.892;6.906;2022-09-09T06:52:09;3.20;;;1.47;;
18716;SDS011;9487;50.892;6.906;2022-09-09T06:54:37;6.60;;;2.10;;
18716;SDS011;9487;50.892;6.906;2022-09-09T06:57:03;7.70;;;2.23;;
18716;SDS011;9487;50.892;6.906;2022-09-09T06:59:32;6.00;;;2.10;;
18716;SDS011;9487;50.892;6.906;2022-09-09T07:01:59;4.07;;;1.63;;
18716;SDS011;9487;50.892;6.906;2022-09-09T07:04:27;9.07;;;1.97;;
18716;SDS011;9487;50.892;6.906;2022-09-09T07:06:54;3.97;;;2.07;;
18716;SDS011;9487;50.892;6.906;2022-09-09T07:09:21;6.37;;;2.27;;
18716;SDS011;9487;50.892;6.906;2022-09-09T07:11:49;4.17;;;1.67;;
18716;SDS011;9487;50.892;6.906;2022-09-09T07:14:18;4.93;;;1.40;;
18716;SDS011;9487;50.892;6.906;2022-09-09T07:16:45;6.00;;;1.77;;
18716;SDS011;9487;50.892;6.906;2022-09-09T07:19:13;5.17;;;1.40;;
18716;SDS011;9487;50.892;6.906;2022-09-09T07:21:42;4.27;;;1.60;;
18716;SDS011;9487;50.892;6.906;2022-09-09T07:24:09;6.40;;;1.60;;
18716;SDS011;9487;50.892;6.906;2022-09-09T07:26:36;5.97;;;1.93;;
18716;SDS011;9487;50.892;6.906;2022-09-09T07:29:04;5.23;;;2.00;;
18716;SDS011;9487;50.892;6.906;2022-09-09T07:31:31;4.00;;;1.60;;
18716;SDS011;9487;50.892;6.906;2022-09-09T07:34:00;5.53;;;1.93;;
18716;SDS011;9487;50.892;6.906;2022-09-09T07:36:29;8.17;;;1.67;;
18716;SDS011;9487;50.892;6.906;2022-09-09T07:38:59;6.73;;;1.67;;
18716;SDS011;9487;50.892;6.906;2022-09-09T07:41:28;5.47;;;1.63;;
18716;SDS011;9487;50.892;6.906;2022-09-09T07:43:57;4.37;;;1.40;;
18716;SDS011;9487;50.892;6.906;2022-09-09T07:46:25;4.33;;;1.63;;
18716;SDS011;9487;50.892;6.906;2022-09-09T07:48:52;5.97;;;1.70;;
18716;SDS011;9487;50.892;6.906;2022-09-09T07:51:21;5.23;;;1.57;;
18716;SDS011;9487;50.892;6.906;2022-09-09T07:53:51;2.83;;;1.33;;
18716;SDS011;9487;50.892;6.906;2022-09-09T07:56:20;2.70;;;1.20;;
18716;SDS011;9487;50.892;6.906;2022-09-09T07:58:48;3.20;;;1.30;;
18716;SDS011;9487;50.892;6.906;2022-09-09T08:01:16;5.73;;;1.70;;
18716;SDS011;9487;50.892;6.906;2022-09-09T08:03:44;5.40;;;1.40;;
18716;SDS011;9487;50.892;6.906;2022-09-09T08:06:13;4.97;;;1.37;;
18716;SDS011;9487;50.892;6.906;2022-09-09T08:08:40;4.23;;;1.53;;
18716;SDS011;9487;50.892;6.906;2022-09-09T08:11:09;3.57;;;1.47;;
18716;SDS011;9487;50.892;6.906;2022-09-09T08:13:38;5.57;;;1.53;;
18716;SDS011;9487;50.892;6.906;2022-09-09T08:16:07;6.07;;;1.67;;
18716;SDS011;9487;50.892;6.906;2022-09-09T08:18:35;5.50;;;1.43;;
18716;SDS011;9487;50.892;6.906;2022-09-09T08:21:06;7.23;;;1.60;;
18716;SDS011;9487;50.892;6.906;2022-09-09T08:23:36;7.30;;;2.30;;
18716;SDS011;9487;50.892;6.906;2022-09-09T08:26:05;4.40;;;1.50;;
18716;SDS011;9487;50.892;6.906;2022-09-09T08:28:34;3.83;;;1.43;;
18716;SDS011;9487;50.892;6.906;2022-09-09T08:31:09;5.00;;;1.43;;
18716;SDS011;9487;50.892;6.906;2022-09-09T08:33:37;3.50;;;1.60;;
18716;SDS011;9487;50.892;6.906;2022-09-09T08:36:05;4.27;;;1.70;;
18716;SDS011;9487;50.892;6.906;2022-09-09T08:38:34;3.87;;;1.57;;
18716;SDS011;9487;50.892;6.906;2022-09-09T08:41:06;2.83;;;1.17;;
18716;SDS011;9487;50.892;6.906;2022-09-09T08:43:48;4.23;;;1.40;;
18716;SDS011;9487;50.892;6.906;2022-09-09T08:46:26;3.43;;;1.50;;
18716;SDS011;9487;50.892;6.906;2022-09-09T08:48:58;4.70;;;1.53;;
18716;SDS011;9487;50.892;6.906;2022-09-09T08:51:32;3.27;;;1.27;;
18716;SDS011;9487;50.892;6.906;2022-09-09T08:53:59;3.97;;;1.50;;
18716;SDS011;9487;50.892;6.906;2022-09-09T08:56:30;3.83;;;1.17;;
18716;SDS011;9487;50.892;6.906;2022-09-09T08:58:59;3.53;;;1.40;;
18716;SDS011;9487;50.892;6.906;2022-09-09T09:04:33;3.47;;;1.50;;
18716;SDS011;9487;50.892;6.906;2022-09-09T09:07:13;4.37;;;1.50;;
18716;SDS011;9487;50.892;6.906;2022-09-09T09:09:50;2.83;;;1.30;;
18716;SDS011;9487;50.892;6.906;2022-09-09T09:12:28;4.77;;;1.30;;
18716;SDS011;9487;50.892;6.906;2022-09-09T09:15:05;5.77;;;1.53;;
18716;SDS011;9487;50.892;6.906;2022-09-09T09:17:44;3.30;;;1.13;;
18716;SDS011;9487;50.892;6.906;2022-09-09T09:20:12;5.20;;;1.30;;
18716;SDS011;9487;50.892;6.906;2022-09-09T09:22:43;4.93;;;2.30;;
18716;SDS011;9487;50.892;6.906;2022-09-09T09:25:16;2.20;;;1.20;;
18716;SDS011;9487;50.892;6.906;2022-09-09T09:27:47;2.47;;;1.20;;
18716;SDS011;9487;50.892;6.906;2022-09-09T09:30:23;4.07;;;1.30;;
18716;SDS011;9487;50.892;6.906;2022-09-09T09:32:54;4.40;;;1.43;;
18716;SDS011;9487;50.892;6.906;2022-09-09T09:35:26;4.67;;;1.40;;
18716;SDS011;9487;50.892;6.906;2022-09-09T09:37:52;5.27;;;1.30;;
18716;SDS011;9487;50.892;6.906;2022-09-09T09:40:20;3.03;;;1.13;;
18716;SDS011;9487;50.892;6.906;2022-09-09T09:42:48;1.97;;;0.90;;
18716;SDS011;9487;50.892;6.906;2022-09-09T09:45:20;3.87;;;1.43;;
18716;SDS011;9487;50.892;6.906;2022-09-09T09:48:02;3.13;;;1.07;;
18716;SDS011;9487;50.892;6.906;2022-09-09T09:50:31;3.47;;;1.47;;
18716;SDS011;9487;50.892;6.906;2022-09-09T09:53:00;6.43;;;1.40;;
18716;SDS011;9487;50.892;6.906;2022-09-09T09:55:29;5.07;;;1.50;;
18716;SDS011;9487;50.892;6.906;2022-09-09T09:58:03;3.10;;;1.20;;
18716;SDS011;9487;50.892;6.906;2022-09-09T10:00:31;3.77;;;0.97;;
18716;SDS011;9487;50.892;6.906;2022-09-09T10:03:02;2.43;;;1.00;;
18716;SDS011;9487;50.892;6.906;2022-09-09T10:05:46;3.77;;;1.20;;
18716;SDS011;9487;50.892;6.906;2022-09-09T10:08:13;4.80;;;1.20;;
18716;SDS011;9487;50.892;6.906;2022-09-09T10:10:46;6.33;;;2.40;;
18716;SDS011;9487;50.892;6.906;2022-09-09T10:13:25;3.57;;;1.20;;
18716;SDS011;9487;50.892;6.906;2022-09-09T10:16:01;2.77;;;0.97;;
18716;SDS011;9487;50.892;6.906;2022-09-09T10:18:42;2.80;;;1.20;;
18716;SDS011;9487;50.892;6.906;2022-09-09T10:21:19;4.40;;;1.87;;
18716;SDS011;9487;50.892;6.906;2022-09-09T10:24:07;2.20;;;1.10;;
18716;SDS011;9487;50.892;6.906;2022-09-09T10:26:44;2.97;;;1.17;;
18716;SDS011;9487;50.892;6.906;2022-09-09T10:32:26;4.10;;;1.30;;
18716;SDS011;9487;50.892;6.906;2022-09-09T10:35:08;4.87;;;1.30;;
18716;SDS011;9487;50.892;6.906;2022-09-09T10:37:41;2.50;;;1.20;;
18716;SDS011;9487;50.892;6.906;2022-09-09T10:40:20;4.07;;;1.33;;
18716;SDS011;9487;50.892;6.906;2022-09-09T10:42:56;2.37;;;1.30;;
18716;SDS011;9487;50.892;6.906;2022-09-09T10:45:32;3.67;;;1.10;;
18716;SDS011;9487;50.892;6.906;2022-09-09T10:48:12;4.40;;;1.23;;
18716;SDS011;9487;50.892;6.906;2022-09-09T10:50:58;3.73;;;1.50;;
18716;SDS011;9487;50.892;6.906;2022-09-09T10:53:37;3.67;;;1.40;;
18716;SDS011;9487;50.892;6.906;2022-09-09T10:56:16;3.77;;;1.27;;
18716;SDS011;9487;50.892;6.906;2022-09-09T10:58:46;2.23;;;1.13;;
18716;SDS011;9487;50.892;6.906;2022-09-09T11:01:17;2.10;;;1.23;;
18716;SDS011;9487;50.892;6.906;2022-09-09T11:03:50;3.73;;;1.50;;
18716;SDS011;9487;50.892;6.906;2022-09-09T11:06:25;2.67;;;1.57;;
18716;SDS011;9487;50.892;6.906;2022-09-09T11:08:55;3.90;;;1.23;;
18716;SDS011;9487;50.892;6.906;2022-09-09T11:11:27;3.63;;;1.40;;
18716;SDS011;9487;50.892;6.906;2022-09-09T11:13:57;5.73;;;1.40;;
18716;SDS011;9487;50.892;6.906;2022-09-09T11:16:31;3.93;;;1.57;;
18716;SDS011;9487;50.892;6.906;2022-09-09T11:19:09;3.73;;;1.23;;
18716;SDS011;9487;50.892;6.906;2022-09-09T11:21:44;3.30;;;1.67;;
18716;SDS011;9487;50.892;6.906;2022-09-09T11:24:14;2.67;;;1.40;;
18716;SDS011;9487;50.892;6.906;2022-09-09T11:26:48;5.20;;;1.40;;
18716;SDS011;9487;50.892;6.906;2022-09-09T11:29:35;6.30;;;1.47;;
18716;SDS011;9487;50.892;6.906;2022-09-09T11:32:22;4.37;;;1.30;;
18716;SDS011;9487;50.892;6.906;2022-09-09T11:35:02;6.83;;;1.50;;
18716;SDS011;9487;50.892;6.906;2022-09-09T11:37:49;2.07;;;1.10;;
18716;SDS011;9487;50.892;6.906;2022-09-09T11:40:28;3.63;;;1.43;;
18716;SDS011;9487;50.892;6.906;2022-09-09T11:43:02;4.07;;;1.23;;
18716;SDS011;9487;50.892;6.906;2022-09-09T11:45:31;2.67;;;1.27;;
18716;SDS011;9487;50.892;6.906;2022-09-09T11:48:01;2.80;;;1.30;;
18716;SDS011;9487;50.892;6.906;2022-09-09T11:50:31;1.93;;;1.00;;
18716;SDS011;9487;50.892;6.906;2022-09-09T11:53:05;2.30;;;1.00;;
18716;SDS011;9487;50.892;6.906;2022-09-09T11:55:45;3.47;;;1.30;;
18716;SDS011;9487;50.892;6.906;2022-09-09T11:58:15;2.03;;;1.20;;
18716;SDS011;9487;50.892;6.906;2022-09-09T12:00:44;3.70;;;1.23;;
18716;SDS011;9487;50.892;6.906;2022-09-09T12:06:08;3.77;;;1.33;;
18716;SDS011;9487;50.892;6.906;2022-09-09T12:08:39;2.73;;;1.10;;
18716;SDS011;9487;50.892;6.906;2022-09-09T12:11:08;3.87;;;1.30;;
18716;SDS011;9487;50.892;6.906;2022-09-09T12:13:36;3.10;;;1.00;;
18716;SDS011;9487;50.892;6.906;2022-09-09T12:16:03;2.53;;;1.23;;
18716;SDS011;9487;50.892;6.906;2022-09-09T12:18:32;5.27;;;1.47;;
18716;SDS011;9487;50.892;6.906;2022-09-09T12:21:02;2.63;;;1.20;;
18716;SDS011;9487;50.892;6.906;2022-09-09T12:23:40;3.00;;;1.30;;
18716;SDS011;9487;50.892;6.906;2022-09-09T12:26:21;3.47;;;1.07;;
18716;SDS011;9487;50.892;6.906;2022-09-09T12:29:01;3.50;;;1.33;;
18716;SDS011;9487;50.892;6.906;2022-09-09T12:31:40;4.67;;;1.30;;
18716;SDS011;9487;50.892;6.906;2022-09-09T12:34:14;3.40;;;1.00;;
18716;SDS011;9487;50.892;6.906;2022-09-09T12:36:43;3.50;;;1.10;;
18716;SDS011;9487;50.892;6.906;2022-09-09T12:39:17;5.00;;;1.30;;
18716;SDS011;9487;50.892;6.906;2022-09-09T12:41:52;3.03;;;1.60;;
18716;SDS011;9487;50.892;6.906;2022-09-09T12:44:21;2.83;;;1.17;;
18716;SDS011;9487;50.892;6.906;2022-09-09T12:46:49;2.73;;;1.33;;
18716;SDS011;9487;50.892;6.906;2022-09-09T12:49:23;3.67;;;1.10;;
18716;SDS011;9487;50.892;6.906;2022-09-09T12:51:59;2.83;;;1.27;;
18716;SDS011;9487;50.892;6.906;2022-09-09T12:54:32;3.87;;;1.40;;
18716;SDS011;9487;50.892;6.906;2022-09-09T12:57:01;2.73;;;1.20;;
18716;SDS011;9487;50.892;6.906;2022-09-09T12:59:34;2.73;;;1.00;;
18716;SDS011;9487;50.892;6.906;2022-09-09T13:02:11;3.13;;;1.23;;
18716;SDS011;9487;50.892;6.906;2022-09-09T13:04:44;4.47;;;1.20;;
18716;SDS011;9487;50.892;6.906;2022-09-09T13:07:11;4.60;;;1.70;;
18716;SDS011;9487;50.892;6.906;2022-09-09T13:09:42;2.07;;;1.07;;
18716;SDS011;9487;50.892;6.906;2022-09-09T13:12:11;2.57;;;1.23;;
18716;SDS011;9487;50.892;6.906;2022-09-09T13:14:42;3.93;;;1.20;;
18716;SDS011;9487;50.892;6.906;2022-09-09T13:17:15;2.57;;;1.00;;
18716;SDS011;9487;50.892;6.906;2022-09-09T13:19:46;1.73;;;0.90;;
18716;SDS011;9487;50.892;6.906;2022-09-09T13:22:20;2.60;;;0.70;;
18716;SDS011;9487;50.892;6.906;2022-09-09T13:24:58;1.97;;;0.90;;
18716;SDS011;9487;50.892;6.906;2022-09-09T13:27:28;2.47;;;0.93;;
18716;SDS011;9487;50.892;6.906;2022-09-09T13:29:57;1.27;;;0.80;;
18716;SDS011;9487;50.892;6.906;2022-09-09T13:32:24;3.37;;;0.90;;
18716;SDS011;9487;50.892;6.906;2022-09-09T13:34:53;2.73;;;0.90;;
18716;SDS011;9487;50.892;6.906;2022-09-09T13:37:22;2.77;;;1.00;;
18716;SDS011;9487;50.892;6.906;2022-09-09T13:39:54;1.50;;;0.90;;
18716;SDS011;9487;50.892;6.906;2022-09-09T13:42:22;2.00;;;1.00;;
18716;SDS011;9487;50.892;6.906;2022-09-09T13:44:51;1.63;;;0.87;;
18716;SDS011;9487;50.892;6.906;2022-09-09T13:47:19;2.33;;;1.00;;
18716;SDS011;9487;50.892;6.906;2022-09-09T13:49:48;2.20;;;1.03;;
18716;SDS011;9487;50.892;6.906;2022-09-09T13:52:15;2.70;;;1.13;;
18716;SDS011;9487;50.892;6.906;2022-09-09T13:54:46;2.13;;;1.03;;
18716;SDS011;9487;50.892;6.906;2022-09-09T13:57:16;3.10;;;0.97;;
18716;SDS011;9487;50.892;6.906;2022-09-09T13:59:45;3.17;;;0.83;;
18716;SDS011;9487;50.892;6.906;2022-09-09T14:02:12;3.70;;;0.90;;
18716;SDS011;9487;50.892;6.906;2022-09-09T14:04:39;1.57;;;0.70;;
18716;SDS011;9487;50.892;6.906;2022-09-09T14:07:08;2.80;;;0.97;;
18716;SDS011;9487;50.892;6.906;2022-09-09T14:09:37;1.87;;;1.00;;
18716;SDS011;9487;50.892;6.906;2022-09-09T14:12:05;1.57;;;0.70;;
18716;SDS011;9487;50.892;6.906;2022-09-09T14:14:33;2.70;;;0.73;;
18716;SDS011;9487;50.892;6.906;2022-09-09T14:17:00;1.50;;;0.80;;
18716;SDS011;9487;50.892;6.906;2022-09-09T14:19:26;1.47;;;0.90;;
18716;SDS011;9487;50.892;6.906;2022-09-09T14:21:53;2.20;;;1.00;;
18716;SDS011;9487;50.892;6.906;2022-09-09T14:24:20;1.70;;;0.80;;
18716;SDS011;9487;50.892;6.906;2022-09-09T14:26:47;1.37;;;0.80;;
18716;SDS011;9487;50.892;6.906;2022-09-09T14:29:13;0.73;;;0.67;;
18716;SDS011;9487;50.892;6.906;2022-09-09T14:31:42;1.43;;;0.70;;
18716;SDS011;9487;50.892;6.906;2022-09-09T14:34:08;1.27;;;0.70;;
18716;SDS011;9487;50.892;6.906;2022-09-09T14:36:36;1.47;;;0.90;;
18716;SDS011;9487;50.892;6.906;2022-09-09T14:39:03;4.90;;;1.17;;
18716;SDS011;9487;50.892;6.906;2022-09-09T14:41:30;4.20;;;1.43;;
18716;SDS011;9487;50.892;6.906;2022-09-09T14:43:56;4.50;;;1.17;;
18716;SDS011;9487;50.892;6.906;2022-09-09T14:46:24;4.03;;;1.27;;
18716;SDS011;9487;50.892;6.906;2022-09-09T14:48:52;2.27;;;1.10;;
18716;SDS011;9487;50.892;6.906;2022-09-09T14:51:20;3.57;;;1.03;;
18716;SDS011;9487;50.892;6.906;2022-09-09T14:53:50;2.03;;;1.07;;
18716;SDS011;9487;50.892;6.906;2022-09-09T14:56:19;2.80;;;1.20;;
18716;SDS011;9487;50.892;6.906;2022-09-09T14:58:48;2.53;;;1.30;;
18716;SDS011;9487;50.892;6.906;2022-09-09T15:01:16;2.40;;;1.20;;
18716;SDS011;9487;50.892;6.906;2022-09-09T15:03:48;2.43;;;1.47;;
18716;SDS011;9487;50.892;6.906;2022-09-09T15:06:17;3.47;;;1.20;;
18716;SDS011;9487;50.892;6.906;2022-09-09T15:08:45;2.67;;;1.47;;
18716;SDS011;9487;50.892;6.906;2022-09-09T15:11:13;3.40;;;1.67;;
18716;SDS011;9487;50.892;6.906;2022-09-09T15:13:42;4.23;;;1.43;;
18716;SDS011;9487;50.892;6.906;2022-09-09T15:16:10;2.57;;;1.30;;
18716;SDS011;9487;50.892;6.906;2022-09-09T15:18:38;1.90;;;1.10;;
18716;SDS011;9487;50.892;6.906;2022-09-09T15:21:08;2.70;;;1.20;;
18716;SDS011;9487;50.892;6.906;2022-09-09T15:23:36;2.93;;;1.37;;
18716;SDS011;9487;50.892;6.906;2022-09-09T15:26:03;2.63;;;1.40;;
18716;SDS011;9487;50.892;6.906;2022-09-09T15:28:31;2.20;;;1.13;;
18716;SDS011;9487;50.892;6.906;2022-09-09T15:31:04;2.57;;;1.33;;
18716;SDS011;9487;50.892;6.906;2022-09-09T15:33:33;3.43;;;1.40;;